sensor_id;sensor_type;location;lat;lon;timestamp;temperature;humidity
71672;DHT22;62112;45.638;11.714;2022-12-29T00:01:46;19.90;88.50
71672;DHT22;62112;45.638;11.714;2022-12-29T00:04:14;19.90;88.30
71672;DHT22;62112;45.638;11.714;2022-12-29T00:06:40;20.00;88.40
71672;DHT22;62112;45.638;11.714;2022-12-29T00:09:07;19.90;88.40
71672;DHT22;62112;45.638;11.714;2022-12-29T00:11:32;20.00;88.50
71672;DHT22;62112;45.638;11.714;2022-12-29T00:13:58;19.90;88.50
71672;DHT22;62112;45.638;11.714;2022-12-29T00:16:44;19.90;88.60
71672;DHT22;62112;45.638;11.714;2022-12-29T00:19:11;20.00;88.60
71672;DHT22;62112;45.638;11.714;2022-12-29T00:21:57;19.90;88.40
71672;DHT22;62112;45.638;11.714;2022-12-29T00:24:42;19.90;88.30
71672;DHT22;62112;45.638;11.714;2022-12-29T00:27:20;20.00;88.50
71672;DHT22;62112;45.638;11.714;2022-12-29T00:30:25;19.90;88.50
71672;DHT22;62112;45.638;11.714;2022-12-29T00:33:14;20.00;88.40
71672;DHT22;62112;45.638;11.714;2022-12-29T00:36:12;19.90;88.50
71672;DHT22;62112;45.638;11.714;2022-12-29T00:38:44;19.90;88.40
71672;DHT22;62112;45.638;11.714;2022-12-29T00:41:29;19.90;88.50
71672;DHT22;62112;45.638;11.714;2022-12-29T00:44:13;19.90;88.40
71672;DHT22;62112;45.638;11.714;2022-12-29T00:46:41;19.90;88.50
71672;DHT22;62112;45.638;11.714;2022-12-29T00:49:09;20.00;88.60
71672;DHT22;62112;45.638;11.714;2022-12-29T00:51:54;19.90;88.50
71672;DHT22;62112;45.638;11.714;2022-12-29T00:54:21;19.90;88.50
71672;DHT22;62112;45.638;11.714;2022-12-29T00:56:52;19.90;88.60
71672;DHT22;62112;45.638;11.714;2022-12-29T00:59:19;19.90;88.50
71672;DHT22;62112;45.638;11.714;2022-12-29T01:01:46;19.90;88.40
71672;DHT22;62112;45.638;11.714;2022-12-29T01:04:13;19.90;88.60
71672;DHT22;62112;45.638;11.714;2022-12-29T01:06:40;19.90;88.40
71672;DHT22;62112;45.638;11.714;2022-12-29T01:09:06;20.00;88.60
71672;DHT22;62112;45.638;11.714;2022-12-29T01:11:51;19.80;88.50
71672;DHT22;62112;45.638;11.714;2022-12-29T01:14:18;19.90;88.50
71672;DHT22;62112;45.638;11.714;2022-12-29T01:16:45;19.90;88.50
71672;DHT22;62112;45.638;11.714;2022-12-29T01:19:12;19.90;88.50
71672;DHT22;62112;45.638;11.714;2022-12-29T01:21:37;19.80;88.50
71672;DHT22;62112;45.638;11.714;2022-12-29T01:24:04;19.80;88.60
71672;DHT22;62112;45.638;11.714;2022-12-29T01:26:30;19.90;88.60
71672;DHT22;62112;45.638;11.714;2022-12-29T01:28:55;19.90;88.50
71672;DHT22;62112;45.638;11.714;2022-12-29T01:31:21;19.90;88.60
71672;DHT22;62112;45.638;11.714;2022-12-29T01:33:47;20.00;88.60
71672;DHT22;62112;45.638;11.714;2022-12-29T01:36:15;19.90;88.60
71672;DHT22;62112;45.638;11.714;2022-12-29T01:38:41;19.80;88.50
71672;DHT22;62112;45.638;11.714;2022-12-29T01:41:09;19.90;88.60
71672;DHT22;62112;45.638;11.714;2022-12-29T01:46:16;19.80;88.50
71672;DHT22;62112;45.638;11.714;2022-12-29T01:48:46;19.80;88.60
71672;DHT22;62112;45.638;11.714;2022-12-29T01:51:13;19.80;88.50
71672;DHT22;62112;45.638;11.714;2022-12-29T01:53:40;19.90;88.60
71672;DHT22;62112;45.638;11.714;2022-12-29T01:56:07;19.80;88.70
71672;DHT22;62112;45.638;11.714;2022-12-29T01:58:41;19.90;88.50
71672;DHT22;62112;45.638;11.714;2022-12-29T02:01:08;19.90;88.70
71672;DHT22;62112;45.638;11.714;2022-12-29T02:03:35;19.80;88.50
71672;DHT22;62112;45.638;11.714;2022-12-29T02:06:07;19.90;88.50
71672;DHT22;62112;45.638;11.714;2022-12-29T02:08:34;19.80;88.50
71672;DHT22;62112;45.638;11.714;2022-12-29T02:11:00;19.80;88.70
71672;DHT22;62112;45.638;11.714;2022-12-29T02:13:27;19.80;88.50
71672;DHT22;62112;45.638;11.714;2022-12-29T02:27:16;19.90;88.50
71672;DHT22;62112;45.638;11.714;2022-12-29T02:32:31;19.80;88.50
71672;DHT22;62112;45.638;11.714;2022-12-29T02:38:13;19.80;88.50
71672;DHT22;62112;45.638;11.714;2022-12-29T02:40:43;19.70;88.50
71672;DHT22;62112;45.638;11.714;2022-12-29T02:43:14;19.90;88.50
71672;DHT22;62112;45.638;11.714;2022-12-29T02:45:55;19.80;88.60
71672;DHT22;62112;45.638;11.714;2022-12-29T02:48:40;19.80;88.60
71672;DHT22;62112;45.638;11.714;2022-12-29T02:51:23;19.80;88.50
71672;DHT22;62112;45.638;11.714;2022-12-29T02:53:53;19.80;88.60
71672;DHT22;62112;45.638;11.714;2022-12-29T02:56:38;19.80;88.60
71672;DHT22;62112;45.638;11.714;2022-12-29T02:59:04;19.80;88.40
71672;DHT22;62112;45.638;11.714;2022-12-29T03:02:25;19.70;88.40
71672;DHT22;62112;45.638;11.714;2022-12-29T03:16:07;19.80;88.50
71672;DHT22;62112;45.638;11.714;2022-12-29T03:18:50;19.70;88.40
71672;DHT22;62112;45.638;11.714;2022-12-29T03:24:11;19.70;88.50
71672;DHT22;62112;45.638;11.714;2022-12-29T03:26:37;19.70;88.60
71672;DHT22;62112;45.638;11.714;2022-12-29T03:29:03;19.70;88.50
71672;DHT22;62112;45.638;11.714;2022-12-29T03:31:31;19.70;88.50
71672;DHT22;62112;45.638;11.714;2022-12-29T03:33:57;19.60;88.50
71672;DHT22;62112;45.638;11.714;2022-12-29T03:36:38;19.70;88.70
71672;DHT22;62112;45.638;11.714;2022-12-29T03:39:10;19.70;88.60
71672;DHT22;62112;45.638;11.714;2022-12-29T03:41:39;19.70;88.40
71672;DHT22;62112;45.638;11.714;2022-12-29T03:44:06;19.70;88.70
71672;DHT22;62112;45.638;11.714;2022-12-29T03:46:32;19.70;88.50
71672;DHT22;62112;45.638;11.714;2022-12-29T03:48:58;19.70;88.50
71672;DHT22;62112;45.638;11.714;2022-12-29T03:51:24;19.80;88.60
71672;DHT22;62112;45.638;11.714;2022-12-29T03:53:50;19.80;88.50
71672;DHT22;62112;45.638;11.714;2022-12-29T03:56:15;19.70;88.50
71672;DHT22;62112;45.638;11.714;2022-12-29T03:58:41;19.70;88.60
71672;DHT22;62112;45.638;11.714;2022-12-29T04:01:07;19.70;88.50
71672;DHT22;62112;45.638;11.714;2022-12-29T04:03:33;19.70;88.50
71672;DHT22;62112;45.638;11.714;2022-12-29T04:05:59;19.70;88.60
71672;DHT22;62112;45.638;11.714;2022-12-29T04:08:25;19.70;88.50
71672;DHT22;62112;45.638;11.714;2022-12-29T04:10:50;19.60;88.40
71672;DHT22;62112;45.638;11.714;2022-12-29T04:13:16;19.70;88.60
71672;DHT22;62112;45.638;11.714;2022-12-29T04:15:43;19.70;88.50
71672;DHT22;62112;45.638;11.714;2022-12-29T04:18:11;19.60;88.60
71672;DHT22;62112;45.638;11.714;2022-12-29T04:20:37;19.60;88.40
71672;DHT22;62112;45.638;11.714;2022-12-29T04:23:21;19.60;88.50
71672;DHT22;62112;45.638;11.714;2022-12-29T04:25:47;19.70;88.50
71672;DHT22;62112;45.638;11.714;2022-12-29T04:28:14;19.60;88.60
71672;DHT22;62112;45.638;11.714;2022-12-29T04:30:41;19.60;88.50
71672;DHT22;62112;45.638;11.714;2022-12-29T04:33:08;19.70;88.50
71672;DHT22;62112;45.638;11.714;2022-12-29T04:35:33;19.60;88.50
71672;DHT22;62112;45.638;11.714;2022-12-29T04:37:59;19.60;88.50
71672;DHT22;62112;45.638;11.714;2022-12-29T04:40:25;19.60;88.50
71672;DHT22;62112;45.638;11.714;2022-12-29T04:42:51;19.60;88.50
71672;DHT22;62112;45.638;11.714;2022-12-29T04:45:17;19.60;88.50
71672;DHT22;62112;45.638;11.714;2022-12-29T04:47:43;19.60;88.60
71672;DHT22;62112;45.638;11.714;2022-12-29T04:50:09;19.60;88.60
71672;DHT22;62112;45.638;11.714;2022-12-29T04:52:35;19.60;88.60
71672;DHT22;62112;45.638;11.714;2022-12-29T04:55:01;19.60;88.40
71672;DHT22;62112;45.638;11.714;2022-12-29T04:57:27;19.60;88.40
71672;DHT22;62112;45.638;11.714;2022-12-29T04:59:53;19.70;88.40
71672;DHT22;62112;45.638;11.714;2022-12-29T05:02:19;19.60;88.40
71672;DHT22;62112;45.638;11.714;2022-12-29T05:04:45;19.60;88.50
71672;DHT22;62112;45.638;11.714;2022-12-29T05:07:12;19.70;88.50
71672;DHT22;62112;45.638;11.714;2022-12-29T05:09:38;19.60;88.40
71672;DHT22;62112;45.638;11.714;2022-12-29T05:12:04;19.60;88.40
71672;DHT22;62112;45.638;11.714;2022-12-29T05:14:30;19.60;88.40
71672;DHT22;62112;45.638;11.714;2022-12-29T05:16:56;19.50;88.40
71672;DHT22;62112;45.638;11.714;2022-12-29T05:19:22;19.60;88.40
71672;DHT22;62112;45.638;11.714;2022-12-29T05:21:48;19.60;88.50
71672;DHT22;62112;45.638;11.714;2022-12-29T05:24:14;19.60;88.40
71672;DHT22;62112;45.638;11.714;2022-12-29T05:26:41;19.50;88.50
71672;DHT22;62112;45.638;11.714;2022-12-29T05:29:07;19.50;88.50
71672;DHT22;62112;45.638;11.714;2022-12-29T05:31:33;19.60;88.40
71672;DHT22;62112;45.638;11.714;2022-12-29T05:34:01;19.50;88.50
71672;DHT22;62112;45.638;11.714;2022-12-29T05:36:27;19.60;88.50
71672;DHT22;62112;45.638;11.714;2022-12-29T05:38:52;19.50;88.40
71672;DHT22;62112;45.638;11.714;2022-12-29T05:41:18;19.50;88.40
71672;DHT22;62112;45.638;11.714;2022-12-29T05:43:44;19.50;88.40
71672;DHT22;62112;45.638;11.714;2022-12-29T05:46:10;19.50;88.50
71672;DHT22;62112;45.638;11.714;2022-12-29T05:48:36;19.50;88.40
71672;DHT22;62112;45.638;11.714;2022-12-29T05:51:02;19.50;88.40
71672;DHT22;62112;45.638;11.714;2022-12-29T05:53:28;19.50;88.40
71672;DHT22;62112;45.638;11.714;2022-12-29T05:55:53;19.50;88.50
71672;DHT22;62112;45.638;11.714;2022-12-29T05:58:19;19.50;88.40
71672;DHT22;62112;45.638;11.714;2022-12-29T06:00:45;19.50;88.40
71672;DHT22;62112;45.638;11.714;2022-12-29T06:03:11;19.50;88.60
71672;DHT22;62112;45.638;11.714;2022-12-29T06:05:37;19.50;88.50
71672;DHT22;62112;45.638;11.714;2022-12-29T06:08:03;19.50;88.50
71672;DHT22;62112;45.638;11.714;2022-12-29T06:10:29;19.40;88.60
71672;DHT22;62112;45.638;11.714;2022-12-29T06:12:55;19.60;88.50
71672;DHT22;62112;45.638;11.714;2022-12-29T06:15:20;19.50;88.40
71672;DHT22;62112;45.638;11.714;2022-12-29T06:17:46;19.50;88.40
71672;DHT22;62112;45.638;11.714;2022-12-29T06:20:12;19.40;88.20
71672;DHT22;62112;45.638;11.714;2022-12-29T06:22:38;19.50;88.40
71672;DHT22;62112;45.638;11.714;2022-12-29T06:25:04;19.40;88.60
71672;DHT22;62112;45.638;11.714;2022-12-29T06:27:31;19.50;88.50
71672;DHT22;62112;45.638;11.714;2022-12-29T06:29:57;19.50;88.40
71672;DHT22;62112;45.638;11.714;2022-12-29T06:32:23;19.40;88.40
71672;DHT22;62112;45.638;11.714;2022-12-29T06:34:48;19.40;88.30
71672;DHT22;62112;45.638;11.714;2022-12-29T06:37:15;19.50;88.40
71672;DHT22;62112;45.638;11.714;2022-12-29T06:39:40;19.40;88.40
71672;DHT22;62112;45.638;11.714;2022-12-29T06:42:09;19.50;88.50
71672;DHT22;62112;45.638;11.714;2022-12-29T06:44:35;19.50;88.60
71672;DHT22;62112;45.638;11.714;2022-12-29T06:47:01;19.50;88.40
71672;DHT22;62112;45.638;11.714;2022-12-29T06:49:26;19.50;88.40
71672;DHT22;62112;45.638;11.714;2022-12-29T06:51:52;19.40;88.50
71672;DHT22;62112;45.638;11.714;2022-12-29T06:54:18;19.50;88.40
71672;DHT22;62112;45.638;11.714;2022-12-29T06:56:44;19.40;88.40
71672;DHT22;62112;45.638;11.714;2022-12-29T06:59:10;19.40;88.30
71672;DHT22;62112;45.638;11.714;2022-12-29T07:01:36;19.30;88.40
71672;DHT22;62112;45.638;11.714;2022-12-29T07:04:03;19.40;88.50
71672;DHT22;62112;45.638;11.714;2022-12-29T07:06:29;19.40;88.50
71672;DHT22;62112;45.638;11.714;2022-12-29T07:08:55;19.40;88.40
71672;DHT22;62112;45.638;11.714;2022-12-29T07:11:22;19.40;88.40
71672;DHT22;62112;45.638;11.714;2022-12-29T07:13:49;19.30;88.30
71672;DHT22;62112;45.638;11.714;2022-12-29T07:16:15;19.40;88.30
71672;DHT22;62112;45.638;11.714;2022-12-29T07:18:43;19.40;88.40
71672;DHT22;62112;45.638;11.714;2022-12-29T07:21:08;19.40;88.40
71672;DHT22;62112;45.638;11.714;2022-12-29T07:23:34;19.40;88.40
71672;DHT22;62112;45.638;11.714;2022-12-29T07:26:08;19.30;88.50
71672;DHT22;62112;45.638;11.714;2022-12-29T07:28:35;19.40;88.40
71672;DHT22;62112;45.638;11.714;2022-12-29T07:31:06;19.40;88.40
71672;DHT22;62112;45.638;11.714;2022-12-29T07:33:39;19.40;88.50
71672;DHT22;62112;45.638;11.714;2022-12-29T07:36:11;19.40;88.40
71672;DHT22;62112;45.638;11.714;2022-12-29T07:38:38;19.40;88.50
71672;DHT22;62112;45.638;11.714;2022-12-29T07:41:06;19.40;88.40
71672;DHT22;62112;45.638;11.714;2022-12-29T07:43:35;19.30;88.60
71672;DHT22;62112;45.638;11.714;2022-12-29T07:46:01;19.40;88.60
71672;DHT22;62112;45.638;11.714;2022-12-29T07:48:27;19.40;88.60
71672;DHT22;62112;45.638;11.714;2022-12-29T07:50:54;19.40;88.40
71672;DHT22;62112;45.638;11.714;2022-12-29T07:53:20;19.40;88.70
71672;DHT22;62112;45.638;11.714;2022-12-29T07:55:49;19.40;88.60
71672;DHT22;62112;45.638;11.714;2022-12-29T07:58:20;19.40;88.70
71672;DHT22;62112;45.638;11.714;2022-12-29T08:00:54;19.40;88.60
71672;DHT22;62112;45.638;11.714;2022-12-29T08:03:22;19.40;88.50
71672;DHT22;62112;45.638;11.714;2022-12-29T08:05:56;19.40;88.50
71672;DHT22;62112;45.638;11.714;2022-12-29T08:08:27;19.50;88.50
71672;DHT22;62112;45.638;11.714;2022-12-29T08:10:52;19.50;88.50
71672;DHT22;62112;45.638;11.714;2022-12-29T08:13:21;19.40;88.50
71672;DHT22;62112;45.638;11.714;2022-12-29T08:15:49;19.50;88.50
71672;DHT22;62112;45.638;11.714;2022-12-29T08:18:16;19.50;88.50
71672;DHT22;62112;45.638;11.714;2022-12-29T08:20:42;19.50;88.50
71672;DHT22;62112;45.638;11.714;2022-12-29T08:23:08;19.60;88.50
71672;DHT22;62112;45.638;11.714;2022-12-29T08:25:34;19.60;88.50
71672;DHT22;62112;45.638;11.714;2022-12-29T08:28:00;19.50;88.60
71672;DHT22;62112;45.638;11.714;2022-12-29T08:30:26;19.50;88.60
71672;DHT22;62112;45.638;11.714;2022-12-29T08:32:52;19.60;88.50
71672;DHT22;62112;45.638;11.714;2022-12-29T08:35:18;19.50;88.60
71672;DHT22;62112;45.638;11.714;2022-12-29T08:37:46;19.50;88.60
71672;DHT22;62112;45.638;11.714;2022-12-29T08:40:12;19.50;88.60
71672;DHT22;62112;45.638;11.714;2022-12-29T08:42:39;19.50;88.50
71672;DHT22;62112;45.638;11.714;2022-12-29T08:45:06;19.60;88.40
71672;DHT22;62112;45.638;11.714;2022-12-29T08:47:35;19.60;88.40
71672;DHT22;62112;45.638;11.714;2022-12-29T08:50:01;19.50;88.40
71672;DHT22;62112;45.638;11.714;2022-12-29T08:52:26;19.50;88.30
71672;DHT22;62112;45.638;11.714;2022-12-29T08:54:52;19.50;88.60
71672;DHT22;62112;45.638;11.714;2022-12-29T08:57:18;19.50;88.40
71672;DHT22;62112;45.638;11.714;2022-12-29T08:59:45;19.50;88.50
71672;DHT22;62112;45.638;11.714;2022-12-29T09:02:12;19.50;88.30
71672;DHT22;62112;45.638;11.714;2022-12-29T09:04:38;19.50;88.40
71672;DHT22;62112;45.638;11.714;2022-12-29T09:07:05;19.50;88.40
71672;DHT22;62112;45.638;11.714;2022-12-29T09:09:32;19.50;88.10
71672;DHT22;62112;45.638;11.714;2022-12-29T09:11:58;19.50;88.30
71672;DHT22;62112;45.638;11.714;2022-12-29T09:14:27;19.50;88.40
71672;DHT22;62112;45.638;11.714;2022-12-29T09:17:03;19.50;88.30
71672;DHT22;62112;45.638;11.714;2022-12-29T09:19:55;19.50;88.50
71672;DHT22;62112;45.638;11.714;2022-12-29T09:22:24;19.50;88.40
71672;DHT22;62112;45.638;11.714;2022-12-29T09:24:53;19.50;88.40
71672;DHT22;62112;45.638;11.714;2022-12-29T09:27:36;19.50;88.20
71672;DHT22;62112;45.638;11.714;2022-12-29T09:30:11;19.50;88.40
71672;DHT22;62112;45.638;11.714;2022-12-29T09:32:45;19.50;88.30
71672;DHT22;62112;45.638;11.714;2022-12-29T09:35:19;19.50;88.30
71672;DHT22;62112;45.638;11.714;2022-12-29T09:37:46;19.60;88.30
71672;DHT22;62112;45.638;11.714;2022-12-29T09:40:32;19.50;88.30
71672;DHT22;62112;45.638;11.714;2022-12-29T09:46:25;19.50;88.20
71672;DHT22;62112;45.638;11.714;2022-12-29T09:49:21;19.40;88.00
71672;DHT22;62112;45.638;11.714;2022-12-29T09:51:53;19.50;88.20
71672;DHT22;62112;45.638;11.714;2022-12-29T09:54:49;19.50;88.20
71672;DHT22;62112;45.638;11.714;2022-12-29T09:57:25;19.50;88.10
71672;DHT22;62112;45.638;11.714;2022-12-29T09:59:57;19.50;88.10
71672;DHT22;62112;45.638;11.714;2022-12-29T10:02:40;19.50;88.10
71672;DHT22;62112;45.638;11.714;2022-12-29T10:05:30;19.50;88.10
71672;DHT22;62112;45.638;11.714;2022-12-29T10:10:56;19.50;88.60
71672;DHT22;62112;45.638;11.714;2022-12-29T10:13:39;19.40;88.40
71672;DHT22;62112;45.638;11.714;2022-12-29T10:16:20;19.50;88.70
71672;DHT22;62112;45.638;11.714;2022-12-29T10:21:37;19.50;89.00
71672;DHT22;62112;45.638;11.714;2022-12-29T10:24:11;19.50;89.00
71672;DHT22;62112;45.638;11.714;2022-12-29T10:26:42;19.60;88.90
71672;DHT22;62112;45.638;11.714;2022-12-29T10:32:06;19.60;88.80
71672;DHT22;62112;45.638;11.714;2022-12-29T10:34:58;19.60;88.70
71672;DHT22;62112;45.638;11.714;2022-12-29T10:40:29;19.60;88.70
71672;DHT22;62112;45.638;11.714;2022-12-29T10:42:58;19.50;88.90
71672;DHT22;62112;45.638;11.714;2022-12-29T10:45:29;19.50;88.70
71672;DHT22;62112;45.638;11.714;2022-12-29T10:48:18;19.60;88.80
71672;DHT22;62112;45.638;11.714;2022-12-29T10:50:45;19.50;88.80
71672;DHT22;62112;45.638;11.714;2022-12-29T10:53:19;19.50;88.80
71672;DHT22;62112;45.638;11.714;2022-12-29T10:55:46;19.50;88.70
71672;DHT22;62112;45.638;11.714;2022-12-29T10:58:13;19.60;88.70
71672;DHT22;62112;45.638;11.714;2022-12-29T11:00:41;19.60;88.60
71672;DHT22;62112;45.638;11.714;2022-12-29T11:06:12;19.60;88.60
71672;DHT22;62112;45.638;11.714;2022-12-29T11:09:04;19.50;88.60
71672;DHT22;62112;45.638;11.714;2022-12-29T11:11:36;19.60;88.70
71672;DHT22;62112;45.638;11.714;2022-12-29T11:16:36;19.60;88.70
71672;DHT22;62112;45.638;11.714;2022-12-29T11:19:02;19.70;88.50
71672;DHT22;62112;45.638;11.714;2022-12-29T11:21:34;19.70;88.40
71672;DHT22;62112;45.638;11.714;2022-12-29T11:26:44;19.80;88.50
71672;DHT22;62112;45.638;11.714;2022-12-29T11:29:17;19.80;88.40
71672;DHT22;62112;45.638;11.714;2022-12-29T11:31:58;19.80;88.40
71672;DHT22;62112;45.638;11.714;2022-12-29T11:34:32;19.80;88.30
71672;DHT22;62112;45.638;11.714;2022-12-29T11:37:14;19.90;88.50
71672;DHT22;62112;45.638;11.714;2022-12-29T11:42:16;19.90;88.30
71672;DHT22;62112;45.638;11.714;2022-12-29T11:44:45;19.90;88.30
71672;DHT22;62112;45.638;11.714;2022-12-29T11:47:29;20.00;88.30
71672;DHT22;62112;45.638;11.714;2022-12-29T11:50:02;20.00;88.10
71672;DHT22;62112;45.638;11.714;2022-12-29T11:52:32;20.00;88.30
71672;DHT22;62112;45.638;11.714;2022-12-29T11:55:03;20.00;88.30
71672;DHT22;62112;45.638;11.714;2022-12-29T11:57:31;20.00;88.30
71672;DHT22;62112;45.638;11.714;2022-12-29T12:00:00;19.90;88.20
71672;DHT22;62112;45.638;11.714;2022-12-29T12:10:26;20.00;88.20
71672;DHT22;62112;45.638;11.714;2022-12-29T12:15:36;20.00;88.20
71672;DHT22;62112;45.638;11.714;2022-12-29T12:21:40;20.10;88.20
71672;DHT22;62112;45.638;11.714;2022-12-29T12:26:59;19.90;88.30
71672;DHT22;62112;45.638;11.714;2022-12-29T12:29:38;20.00;88.20
71672;DHT22;62112;45.638;11.714;2022-12-29T12:35:16;19.90;88.20
71672;DHT22;62112;45.638;11.714;2022-12-29T12:37:56;19.90;88.30
71672;DHT22;62112;45.638;11.714;2022-12-29T12:40:34;19.90;88.50
71672;DHT22;62112;45.638;11.714;2022-12-29T12:43:19;19.90;88.30
71672;DHT22;62112;45.638;11.714;2022-12-29T12:46:08;19.80;88.40
71672;DHT22;62112;45.638;11.714;2022-12-29T12:57:22;19.80;88.20
71672;DHT22;62112;45.638;11.714;2022-12-29T13:00:15;19.80;88.20
71672;DHT22;62112;45.638;11.714;2022-12-29T13:14:52;19.80;88.10
71672;DHT22;62112;45.638;11.714;2022-12-29T13:29:05;19.70;88.50
71672;DHT22;62112;45.638;11.714;2022-12-29T13:34:59;19.80;88.30
71672;DHT22;62112;45.638;11.714;2022-12-29T13:37:31;19.80;88.50
71672;DHT22;62112;45.638;11.714;2022-12-29T13:40:10;19.70;88.50
71672;DHT22;62112;45.638;11.714;2022-12-29T13:42:37;19.80;88.50
71672;DHT22;62112;45.638;11.714;2022-12-29T13:45:20;19.70;88.50
71672;DHT22;62112;45.638;11.714;2022-12-29T13:47:55;19.70;88.50
71672;DHT22;62112;45.638;11.714;2022-12-29T13:50:26;19.80;88.50
71672;DHT22;62112;45.638;11.714;2022-12-29T13:53:00;19.80;88.60
71672;DHT22;62112;45.638;11.714;2022-12-29T13:56:07;19.80;88.60
71672;DHT22;62112;45.638;11.714;2022-12-29T13:58:50;19.70;88.70
71672;DHT22;62112;45.638;11.714;2022-12-29T14:03:56;19.80;88.50
71672;DHT22;62112;45.638;11.714;2022-12-29T14:06:23;19.80;88.50
71672;DHT22;62112;45.638;11.714;2022-12-29T14:08:59;19.90;88.70
71672;DHT22;62112;45.638;11.714;2022-12-29T14:11:35;19.80;88.60
71672;DHT22;62112;45.638;11.714;2022-12-29T14:14:25;19.80;88.60
71672;DHT22;62112;45.638;11.714;2022-12-29T14:16:54;19.90;88.50
71672;DHT22;62112;45.638;11.714;2022-12-29T14:19:24;19.90;88.50
71672;DHT22;62112;45.638;11.714;2022-12-29T14:21:54;19.90;88.50
71672;DHT22;62112;45.638;11.714;2022-12-29T14:29:51;19.90;88.60
71672;DHT22;62112;45.638;11.714;2022-12-29T14:34:59;19.80;88.60
71672;DHT22;62112;45.638;11.714;2022-12-29T14:37:33;19.80;88.50
71672;DHT22;62112;45.638;11.714;2022-12-29T14:40:16;19.90;88.60
71672;DHT22;62112;45.638;11.714;2022-12-29T14:42:48;19.80;88.60
71672;DHT22;62112;45.638;11.714;2022-12-29T14:47:49;19.90;88.60
71672;DHT22;62112;45.638;11.714;2022-12-29T14:53:02;19.90;88.60
71672;DHT22;62112;45.638;11.714;2022-12-29T14:58:05;19.80;88.70
71672;DHT22;62112;45.638;11.714;2022-12-29T15:00:36;19.90;88.60
71672;DHT22;62112;45.638;11.714;2022-12-29T15:03:48;19.90;88.50
71672;DHT22;62112;45.638;11.714;2022-12-29T15:08:20;19.90;88.50
71672;DHT22;62112;45.638;11.714;2022-12-29T15:13:35;19.90;88.50
71672;DHT22;62112;45.638;11.714;2022-12-29T15:16:01;19.90;88.50
71672;DHT22;62112;45.638;11.714;2022-12-29T15:18:32;19.90;88.50
71672;DHT22;62112;45.638;11.714;2022-12-29T15:21:00;19.80;88.60
71672;DHT22;62112;45.638;11.714;2022-12-29T15:23:29;19.90;88.50
71672;DHT22;62112;45.638;11.714;2022-12-29T15:25:58;19.80;88.50
71672;DHT22;62112;45.638;11.714;2022-12-29T15:28:25;19.90;88.60
71672;DHT22;62112;45.638;11.714;2022-12-29T15:31:02;19.90;88.80
71672;DHT22;62112;45.638;11.714;2022-12-29T15:33:28;20.00;88.50
71672;DHT22;62112;45.638;11.714;2022-12-29T15:35:57;19.90;88.40
71672;DHT22;62112;45.638;11.714;2022-12-29T15:38:28;19.90;88.60
71672;DHT22;62112;45.638;11.714;2022-12-29T15:40:58;19.90;88.60
71672;DHT22;62112;45.638;11.714;2022-12-29T15:46:11;19.90;88.60
71672;DHT22;62112;45.638;11.714;2022-12-29T15:48:38;19.90;88.60
71672;DHT22;62112;45.638;11.714;2022-12-29T15:51:19;19.90;88.50
71672;DHT22;62112;45.638;11.714;2022-12-29T15:53:51;19.90;88.50
71672;DHT22;62112;45.638;11.714;2022-12-29T15:56:17;19.90;88.60
71672;DHT22;62112;45.638;11.714;2022-12-29T15:58:49;19.90;88.60
71672;DHT22;62112;45.638;11.714;2022-12-29T16:01:35;20.00;88.60
71672;DHT22;62112;45.638;11.714;2022-12-29T16:04:05;19.90;88.70
71672;DHT22;62112;45.638;11.714;2022-12-29T16:06:37;19.90;88.50
71672;DHT22;62112;45.638;11.714;2022-12-29T16:09:16;19.90;88.50
71672;DHT22;62112;45.638;11.714;2022-12-29T16:11:52;19.90;88.50
71672;DHT22;62112;45.638;11.714;2022-12-29T16:14:43;19.90;88.60
71672;DHT22;62112;45.638;11.714;2022-12-29T16:17:24;19.90;88.40
71672;DHT22;62112;45.638;11.714;2022-12-29T16:20:03;19.80;88.50
71672;DHT22;62112;45.638;11.714;2022-12-29T16:22:39;19.90;88.50
71672;DHT22;62112;45.638;11.714;2022-12-29T16:25:15;20.00;88.20
71672;DHT22;62112;45.638;11.714;2022-12-29T16:27:43;19.90;88.50
71672;DHT22;62112;45.638;11.714;2022-12-29T16:30:32;19.90;88.30
71672;DHT22;62112;45.638;11.714;2022-12-29T16:33:00;19.90;88.40
71672;DHT22;62112;45.638;11.714;2022-12-29T16:35:29;20.00;88.50
71672;DHT22;62112;45.638;11.714;2022-12-29T16:40:55;19.90;88.50
71672;DHT22;62112;45.638;11.714;2022-12-29T16:43:29;19.90;88.30
71672;DHT22;62112;45.638;11.714;2022-12-29T16:48:46;19.90;88.50
71672;DHT22;62112;45.638;11.714;2022-12-29T16:51:17;20.00;88.50
71672;DHT22;62112;45.638;11.714;2022-12-29T16:53:52;20.00;88.50
71672;DHT22;62112;45.638;11.714;2022-12-29T16:56:23;20.00;88.40
71672;DHT22;62112;45.638;11.714;2022-12-29T17:01:46;19.90;88.40
71672;DHT22;62112;45.638;11.714;2022-12-29T17:04:13;20.00;88.50
71672;DHT22;62112;45.638;11.714;2022-12-29T17:06:40;20.00;88.40
71672;DHT22;62112;45.638;11.714;2022-12-29T17:09:20;20.00;88.40
71672;DHT22;62112;45.638;11.714;2022-12-29T17:11:52;20.00;88.60
71672;DHT22;62112;45.638;11.714;2022-12-29T17:19:50;20.00;88.60
71672;DHT22;62112;45.638;11.714;2022-12-29T17:22:20;20.00;88.50
71672;DHT22;62112;45.638;11.714;2022-12-29T17:24:46;20.00;88.60
71672;DHT22;62112;45.638;11.714;2022-12-29T17:27:37;20.00;88.40
71672;DHT22;62112;45.638;11.714;2022-12-29T17:30:15;20.10;88.60
71672;DHT22;62112;45.638;11.714;2022-12-29T17:32:43;20.00;88.60
71672;DHT22;62112;45.638;11.714;2022-12-29T17:35:15;20.00;88.40
71672;DHT22;62112;45.638;11.714;2022-12-29T17:37:42;20.00;88.60
71672;DHT22;62112;45.638;11.714;2022-12-29T17:40:23;20.00;88.60
71672;DHT22;62112;45.638;11.714;2022-12-29T17:42:53;20.10;88.50
71672;DHT22;62112;45.638;11.714;2022-12-29T17:45:27;20.00;88.60
71672;DHT22;62112;45.638;11.714;2022-12-29T17:47:55;20.00;88.60
71672;DHT22;62112;45.638;11.714;2022-12-29T17:50:26;20.00;88.60
71672;DHT22;62112;45.638;11.714;2022-12-29T17:53:00;20.10;88.50
71672;DHT22;62112;45.638;11.714;2022-12-29T17:55:27;20.00;88.50
71672;DHT22;62112;45.638;11.714;2022-12-29T17:57:53;20.00;88.40
71672;DHT22;62112;45.638;11.714;2022-12-29T18:00:22;20.10;88.50
71672;DHT22;62112;45.638;11.714;2022-12-29T18:02:53;20.00;88.50
71672;DHT22;62112;45.638;11.714;2022-12-29T18:05:24;20.00;88.60
71672;DHT22;62112;45.638;11.714;2022-12-29T18:07:52;20.00;88.50
71672;DHT22;62112;45.638;11.714;2022-12-29T18:10:20;20.00;88.60
71672;DHT22;62112;45.638;11.714;2022-12-29T18:12:51;20.10;88.40
71672;DHT22;62112;45.638;11.714;2022-12-29T18:15:26;19.90;88.60